createdAt,value
2018-03-14T00:02:24.739Z,67.70
2018-03-14T00:04:56.084Z,67.70
2018-03-14T00:07:27.204Z,67.70
2018-03-14T00:09:58.888Z,68.00
2018-03-14T00:12:30.380Z,67.60
2018-03-14T00:15:01.559Z,67.70
2018-03-14T00:17:32.876Z,67.70
2018-03-14T00:20:03.585Z,67.50
2018-03-14T00:22:35.594Z,67.10
2018-03-14T00:25:07.117Z,67.00
2018-03-14T00:27:38.014Z,67.00
2018-03-14T00:30:09.525Z,66.90
2018-03-14T00:32:40.894Z,66.80
2018-03-14T00:35:11.922Z,66.80
2018-03-14T00:37:43.560Z,66.80
2018-03-14T00:40:14.738Z,66.70
2018-03-14T00:42:45.789Z,66.80
2018-03-14T00:45:17.421Z,66.60
2018-03-14T00:47:48.706Z,67.90
2018-03-14T00:50:19.633Z,66.60
2018-03-14T00:52:50.869Z,67.00
2018-03-14T00:55:22.095Z,67.30
2018-03-14T00:57:53.411Z,67.30
2018-03-14T01:00:24.498Z,67.30
2018-03-14T01:02:55.612Z,67.00
2018-03-14T01:05:26.436Z,66.80
2018-03-14T01:07:57.323Z,66.70
2018-03-14T01:10:28.172Z,66.60
2018-03-14T01:12:59.654Z,66.90
2018-03-14T01:15:31.083Z,67.10
2018-03-14T01:18:02.931Z,66.90
2018-03-14T01:20:34.092Z,66.90
2018-03-14T01:23:05.147Z,66.90
2018-03-14T01:25:36.859Z,66.80
2018-03-14T01:28:08.045Z,67.10
2018-03-14T01:30:38.838Z,67.10
2018-03-14T01:33:10.273Z,67.20
2018-03-14T01:35:41.594Z,67.10
2018-03-14T01:38:12.722Z,67.10
2018-03-14T01:40:43.912Z,67.20
2018-03-14T01:43:15.922Z,67.20
2018-03-14T01:45:46.831Z,67.20
2018-03-14T01:48:26.198Z,67.30
2018-03-14T01:50:59.535Z,67.30
2018-03-14T01:53:31.941Z,67.30
2018-03-14T01:56:03.179Z,67.30
2018-03-14T01:58:34.602Z,68.10
2018-03-14T02:01:05.330Z,67.20
2018-03-14T02:03:36.987Z,67.40
2018-03-14T02:06:08.148Z,67.30
2018-03-14T02:08:39.220Z,67.40
2018-03-14T02:11:10.054Z,67.30
2018-03-14T02:13:41.057Z,67.20
2018-03-14T02:16:12.446Z,67.10
2018-03-14T02:18:43.174Z,67.10
2018-03-14T02:21:13.877Z,66.90
2018-03-14T02:23:46.830Z,67.30
2018-03-14T02:26:17.304Z,67.30
2018-03-14T02:28:47.666Z,67.50
2018-03-14T02:31:18.854Z,67.30
2018-03-14T02:33:50.241Z,67.50
2018-03-14T02:36:29.356Z,67.50
2018-03-14T02:38:59.537Z,67.30
2018-03-14T02:41:29.610Z,67.10
2018-03-14T02:44:00.248Z,67.10
2018-03-14T02:46:30.347Z,67.10
2018-03-14T02:49:00.502Z,67.40
2018-03-14T02:51:31.606Z,67.70
2018-03-14T02:54:01.622Z,67.40
2018-03-14T02:56:33.187Z,68.00
2018-03-14T02:59:04.843Z,67.80
2018-03-14T03:01:35.678Z,67.90
2018-03-14T03:04:06.563Z,68.10
2018-03-14T03:06:36.982Z,68.10
2018-03-14T03:09:07.113Z,68.20
2018-03-14T03:11:37.602Z,68.50
2018-03-14T03:14:08.231Z,68.60
2018-03-14T03:16:38.683Z,69.10
2018-03-14T03:19:09.255Z,69.10
2018-03-14T03:21:39.719Z,69.10
2018-03-14T03:24:10.053Z,69.40
2018-03-14T03:26:41.303Z,69.50
2018-03-14T03:29:11.586Z,69.40
2018-03-14T03:31:41.687Z,69.30
2018-03-14T03:34:12.150Z,69.70
2018-03-14T03:36:42.519Z,69.40
2018-03-14T03:39:12.903Z,69.20
2018-03-14T03:41:43.363Z,69.40
2018-03-14T03:44:13.421Z,69.40
2018-03-14T03:46:43.835Z,69.40
2018-03-14T03:49:14.221Z,69.60
2018-03-14T03:51:44.096Z,69.60
2018-03-14T03:54:14.320Z,69.40
2018-03-14T03:56:45.450Z,68.90
2018-03-14T03:59:15.515Z,69.40
2018-03-14T04:01:45.707Z,69.20
2018-03-14T04:04:16.546Z,69.30
2018-03-14T04:06:46.585Z,69.30
2018-03-14T04:09:16.594Z,69.60
2018-03-14T04:11:47.763Z,69.30
2018-03-14T04:14:17.764Z,69.30
2018-03-14T04:16:47.984Z,69.20
2018-03-14T04:19:17.921Z,69.30
2018-03-14T04:21:48.102Z,69.50
2018-03-14T04:24:19.297Z,69.70
2018-03-14T04:26:49.465Z,69.70
2018-03-14T04:29:20.108Z,70.30
2018-03-14T04:31:50.934Z,69.80
2018-03-14T04:34:21.911Z,69.60
2018-03-14T04:36:52.274Z,69.60
2018-03-14T04:39:22.243Z,69.60
2018-03-14T04:41:52.405Z,69.60
2018-03-14T04:44:22.749Z,69.40
2018-03-14T04:46:52.907Z,69.30
2018-03-14T04:49:23.120Z,69.50
2018-03-14T04:51:53.228Z,69.90
2018-03-14T04:54:24.415Z,69.60
2018-03-14T04:56:54.786Z,69.70
2018-03-14T04:59:24.796Z,69.40
2018-03-14T05:01:55.322Z,69.70
2018-03-14T05:04:27.207Z,69.80
2018-03-14T05:06:58.624Z,69.90
2018-03-14T05:09:29.009Z,69.90
2018-03-14T05:12:10.985Z,70.10
2018-03-14T05:14:42.692Z,70.20
2018-03-14T05:17:14.178Z,70.00
2018-03-14T05:19:45.312Z,69.60
2018-03-14T05:22:17.546Z,69.60
2018-03-14T05:24:48.224Z,69.60
2018-03-14T05:27:19.363Z,69.10
2018-03-14T05:29:50.149Z,69.40
2018-03-14T05:32:20.634Z,69.50
2018-03-14T05:34:52.215Z,69.40
2018-03-14T05:37:23.677Z,69.40
2018-03-14T05:39:55.486Z,69.70
2018-03-14T05:42:26.288Z,68.10
2018-03-14T05:44:57.426Z,69.60
2018-03-14T05:47:28.582Z,69.50
2018-03-14T05:50:01.151Z,69.40
2018-03-14T05:52:32.161Z,68.90
2018-03-14T05:55:03.479Z,69.40
2018-03-14T05:57:35.331Z,69.00
2018-03-14T06:00:07.319Z,69.00
2018-03-14T06:02:39.015Z,69.10
2018-03-14T06:05:11.470Z,69.00
2018-03-14T06:07:43.063Z,68.90
2018-03-14T06:10:15.540Z,68.60
2018-03-14T06:12:46.784Z,68.60
2018-03-14T06:15:18.392Z,68.50
2018-03-14T06:17:49.759Z,68.60
2018-03-14T06:26:18.102Z,68.20
2018-03-14T06:28:52.440Z,68.20
2018-03-14T06:31:23.628Z,68.00
2018-03-14T06:33:56.437Z,68.40
2018-03-14T06:36:31.011Z,68.60
2018-03-14T06:39:03.423Z,68.70
2018-03-14T06:41:35.474Z,68.70
2018-03-14T06:44:07.775Z,68.40
2018-03-14T06:46:38.511Z,68.20
2018-03-14T06:49:09.398Z,68.50
2018-03-14T06:51:41.345Z,68.90
2018-03-14T06:54:12.323Z,68.90
2018-03-14T06:56:43.535Z,68.80
2018-03-14T07:01:27.793Z,68.50
2018-03-14T07:06:15.313Z,68.50
2018-03-14T07:08:47.128Z,68.20
2018-03-14T07:11:18.394Z,68.20
2018-03-14T07:13:51.987Z,68.10
2018-03-14T07:16:25.592Z,68.00
2018-03-14T07:18:56.852Z,68.20
2018-03-14T07:21:31.420Z,68.20
2018-03-14T07:24:04.785Z,68.10
2018-03-14T07:26:36.895Z,68.00
2018-03-14T07:29:09.718Z,68.50
2018-03-14T07:31:41.682Z,68.50
2018-03-14T07:34:16.158Z,68.30
2018-03-14T07:36:47.787Z,68.40
2018-03-14T07:39:19.660Z,69.00
2018-03-14T07:41:51.649Z,69.40
2018-03-14T07:44:23.728Z,69.40
2018-03-14T07:46:55.331Z,69.60
2018-03-14T07:49:28.648Z,70.30
2018-03-14T07:51:59.752Z,70.50
2018-03-14T07:54:31.173Z,70.80
2018-03-14T07:57:02.211Z,71.00
2018-03-14T07:59:33.308Z,71.00
2018-03-14T08:02:04.158Z,71.10
2018-03-14T08:04:34.872Z,71.00
2018-03-14T08:07:06.290Z,70.60
2018-03-14T08:09:37.296Z,71.30
2018-03-14T08:12:08.062Z,71.60
2018-03-14T08:17:25.369Z,72.60
2018-03-14T08:19:58.765Z,72.30
2018-03-14T08:22:30.091Z,71.90
2018-03-14T08:25:02.551Z,71.40
2018-03-14T08:27:37.138Z,71.20
2018-03-14T08:30:11.788Z,70.80
2018-03-14T08:32:43.549Z,70.70
2018-03-14T08:35:18.011Z,71.30
2018-03-14T08:37:50.717Z,71.20
2018-03-14T08:40:22.083Z,71.40
2018-03-14T08:42:52.983Z,71.10
2018-03-14T08:45:25.106Z,70.80
2018-03-14T08:47:56.372Z,71.00
2018-03-14T08:50:27.415Z,70.60
2018-03-14T08:52:58.240Z,70.50
2018-03-14T08:55:30.800Z,70.30
2018-03-14T08:58:13.677Z,70.30
2018-03-14T09:00:46.022Z,69.90
2018-03-14T09:03:18.670Z,69.30
2018-03-14T09:05:49.926Z,69.20
2018-03-14T09:08:21.068Z,68.90
2018-03-14T09:10:51.924Z,68.30
2018-03-14T09:16:25.702Z,68.00
2018-03-14T09:18:59.430Z,66.20
2018-03-14T09:21:31.480Z,65.80
2018-03-14T09:24:13.822Z,65.70
2018-03-14T09:26:45.682Z,64.70
2018-03-14T09:29:16.917Z,64.80
2018-03-14T09:31:48.999Z,64.80
2018-03-14T09:34:22.210Z,63.80
2018-03-14T09:37:05.621Z,63.80
2018-03-14T09:39:37.563Z,63.00
2018-03-14T09:42:08.420Z,63.00
2018-03-14T09:44:43.381Z,59.80
2018-03-14T09:47:18.698Z,59.80
2018-03-14T09:52:34.790Z,60.70
2018-03-14T09:55:07.102Z,60.50
2018-03-14T09:57:38.199Z,60.80
2018-03-14T10:00:12.123Z,60.80
2018-03-14T10:02:45.023Z,60.70
2018-03-14T10:05:16.384Z,59.60
2018-03-14T10:07:49.880Z,57.20
2018-03-14T10:10:21.985Z,58.00
2018-03-14T10:12:54.110Z,58.30
2018-03-14T10:15:27.046Z,58.40
2018-03-14T10:17:58.549Z,58.50
2018-03-14T10:20:29.086Z,58.40
2018-03-14T10:23:01.730Z,57.60
2018-03-14T10:25:35.343Z,57.60
2018-03-14T10:28:08.701Z,57.10
2018-03-14T10:30:40.110Z,57.10
2018-03-14T10:33:15.116Z,57.40
2018-03-14T10:35:49.865Z,55.60
2018-03-14T10:38:23.225Z,55.80
2018-03-14T10:40:57.212Z,55.80
2018-03-14T10:43:27.674Z,55.80
2018-03-14T10:45:59.329Z,55.80
2018-03-14T10:48:42.182Z,55.20
2018-03-14T10:51:19.666Z,52.90
2018-03-14T10:53:51.591Z,53.70
2018-03-14T10:56:31.100Z,53.80
2018-03-14T11:02:01.109Z,53.80
2018-03-14T11:04:35.533Z,54.00
2018-03-14T11:07:06.926Z,52.80
2018-03-14T11:09:42.784Z,53.00
2018-03-14T11:12:21.032Z,52.70
2018-03-14T11:14:52.824Z,52.30
2018-03-14T11:17:25.787Z,52.20
2018-03-14T11:20:02.062Z,52.00
2018-03-14T11:22:49.484Z,52.00
2018-03-14T11:25:20.434Z,53.00
2018-03-14T11:27:56.830Z,53.70
2018-03-14T11:30:59.874Z,53.40
2018-03-14T11:33:41.719Z,53.40
2018-03-14T11:36:41.589Z,54.20
2018-03-14T11:42:04.170Z,55.10
2018-03-14T11:44:41.586Z,55.10
2018-03-14T11:47:15.786Z,55.00
2018-03-14T11:49:53.376Z,54.70
2018-03-14T11:52:42.797Z,54.80
2018-03-14T11:55:36.419Z,56.60
2018-03-14T11:58:39.845Z,57.30
2018-03-14T12:10:50.897Z,56.50
2018-03-14T12:13:51.119Z,56.50
2018-03-14T12:16:28.963Z,56.10
2018-03-14T12:19:05.091Z,56.30
2018-03-14T12:22:10.680Z,57.20
2018-03-14T12:24:47.212Z,57.10
2018-03-14T12:27:32.217Z,56.70
2018-03-14T12:30:09.843Z,56.60
2018-03-14T12:32:56.770Z,56.60
2018-03-14T12:35:37.646Z,56.30
2018-03-14T12:38:12.985Z,56.40
2018-03-14T12:43:50.799Z,56.10
2018-03-14T12:46:41.562Z,56.00
2018-03-14T12:52:17.549Z,56.30
2018-03-14T12:56:25.093Z,56.10
2018-03-14T12:58:58.433Z,56.70
2018-03-14T13:01:56.439Z,56.80
2018-03-14T13:04:45.322Z,56.10
2018-03-14T13:07:18.532Z,55.90
2018-03-14T13:12:33.932Z,55.30
2018-03-14T13:15:08.461Z,53.60
2018-03-14T13:17:40.105Z,52.40
2018-03-14T13:20:10.913Z,52.50
2018-03-14T13:22:55.902Z,53.40
2018-03-14T13:25:43.627Z,53.90
2018-03-14T13:28:21.210Z,53.90
2018-03-14T13:34:07.971Z,53.40
2018-03-14T13:36:43.013Z,53.60
2018-03-14T13:39:14.063Z,53.50
2018-03-14T13:44:50.019Z,54.40
2018-03-14T13:47:41.023Z,54.50
2018-03-14T13:50:19.681Z,53.90
2018-03-14T13:56:27.153Z,52.20
2018-03-14T13:59:01.723Z,51.60
2018-03-14T14:02:11.674Z,51.80
2018-03-14T14:05:01.611Z,51.90
2018-03-14T14:07:46.392Z,50.90
2018-03-14T14:10:27.862Z,51.50
2018-03-14T14:13:02.571Z,51.70
2018-03-14T14:15:50.948Z,51.70
2018-03-14T14:18:30.089Z,51.70
2018-03-14T14:21:05.579Z,51.80
2018-03-14T14:23:50.175Z,51.80
2018-03-14T14:27:01.179Z,51.90
2018-03-14T14:29:36.938Z,52.00
2018-03-14T14:32:22.289Z,53.00
2018-03-14T14:34:55.818Z,52.50
2018-03-14T14:37:26.630Z,52.20
2018-03-14T14:39:58.111Z,51.70
2018-03-14T14:42:35.166Z,51.70
2018-03-14T14:45:09.607Z,52.20
2018-03-14T14:47:43.759Z,51.90
2018-03-14T14:50:16.681Z,52.00
2018-03-14T14:52:51.524Z,52.60
2018-03-14T14:55:55.446Z,52.70
2018-03-14T14:58:29.442Z,53.70
2018-03-14T15:01:02.181Z,54.00
2018-03-14T15:03:35.111Z,53.70
2018-03-14T15:06:07.704Z,53.30
2018-03-14T15:08:40.508Z,53.30
2018-03-14T15:11:13.398Z,52.80
2018-03-14T15:13:59.586Z,53.00
2018-03-14T15:16:29.937Z,52.90
2018-03-14T15:19:25.182Z,53.00
2018-03-14T15:24:51.888Z,52.50
2018-03-14T15:27:26.134Z,52.50
2018-03-14T15:29:57.228Z,52.50
2018-03-14T15:32:28.303Z,52.40
2018-03-14T15:35:01.984Z,52.70
2018-03-14T15:37:34.940Z,53.80
2018-03-14T15:40:09.936Z,53.20
2018-03-14T15:42:50.875Z,53.20
2018-03-14T15:46:00.628Z,52.70
2018-03-14T15:49:10.592Z,51.60
2018-03-14T15:51:57.161Z,51.70
2018-03-14T15:54:45.383Z,51.90
2018-03-14T15:57:15.992Z,51.90
2018-03-14T16:09:16.552Z,51.50
2018-03-14T16:15:09.262Z,51.00
2018-03-14T16:17:41.520Z,50.40
2018-03-14T16:20:14.449Z,50.00
2018-03-14T16:26:02.688Z,50.20
2018-03-14T16:28:34.931Z,50.20
2018-03-14T16:31:08.244Z,49.90
2018-03-14T16:37:09.994Z,49.90
2018-03-14T16:39:53.946Z,50.00
2018-03-14T16:42:25.138Z,50.30
2018-03-14T16:45:10.670Z,50.60
2018-03-14T16:47:42.308Z,50.60
2018-03-14T16:50:28.514Z,50.40
2018-03-14T16:53:08.676Z,50.70
2018-03-14T16:56:05.665Z,50.60
2018-03-14T17:05:10.617Z,50.50
2018-03-14T17:10:37.304Z,50.70
2018-03-14T17:13:10.840Z,51.30
2018-03-14T17:15:42.150Z,51.30
2018-03-14T17:18:14.188Z,51.90
2018-03-14T17:20:46.556Z,51.80
2018-03-14T17:23:17.593Z,52.00
2018-03-14T17:25:49.290Z,52.20
2018-03-14T17:28:22.353Z,52.20
2018-03-14T17:30:58.503Z,52.80
2018-03-14T17:33:29.112Z,52.80
2018-03-14T17:36:02.172Z,53.30
2018-03-14T17:38:48.883Z,53.20
2018-03-14T17:41:24.551Z,53.30
2018-03-14T17:43:56.722Z,53.60
2018-03-14T17:46:32.385Z,54.30
2018-03-14T17:49:03.646Z,54.40
2018-03-14T17:51:34.093Z,54.40
2018-03-14T17:54:09.071Z,54.80
2018-03-14T17:56:42.855Z,55.10
2018-03-14T17:59:13.296Z,55.40
2018-03-14T18:01:44.689Z,56.10
2018-03-14T18:04:19.702Z,56.00
2018-03-14T18:06:51.931Z,55.80
2018-03-14T18:09:24.069Z,56.40
2018-03-14T18:11:57.097Z,57.60
2018-03-14T18:14:29.705Z,57.60
2018-03-14T18:17:00.065Z,57.70
2018-03-14T18:19:30.971Z,57.70
2018-03-14T18:22:03.311Z,58.60
2018-03-14T18:24:35.650Z,58.10
2018-03-14T18:27:09.953Z,58.20
2018-03-14T18:29:40.211Z,58.40
2018-03-14T18:32:11.963Z,59.30
2018-03-14T18:34:44.800Z,59.40
2018-03-14T18:37:17.781Z,59.30
2018-03-14T18:39:51.714Z,59.20
2018-03-14T18:42:28.143Z,59.50
2018-03-14T18:45:02.088Z,59.80
2018-03-14T18:47:34.229Z,59.80
2018-03-14T18:50:11.567Z,60.00
2018-03-14T18:52:46.579Z,61.40
2018-03-14T18:55:17.206Z,60.70
2018-03-14T18:58:02.077Z,60.60
2018-03-14T19:00:49.097Z,60.90
2018-03-14T19:03:24.441Z,61.50
2018-03-14T19:06:05.280Z,61.40
2018-03-14T19:08:40.403Z,61.20
2018-03-14T19:11:14.368Z,62.20
2018-03-14T19:13:45.613Z,61.20
2018-03-14T19:16:20.009Z,61.90
2018-03-14T19:19:04.579Z,61.70
2018-03-14T19:24:43.241Z,61.70
2018-03-14T19:27:19.888Z,61.40
2018-03-14T19:29:51.807Z,61.70
2018-03-14T19:32:38.690Z,61.80
2018-03-14T19:35:32.734Z,61.80
2018-03-14T19:40:49.523Z,62.00
2018-03-14T19:43:20.316Z,62.10
2018-03-14T19:45:50.571Z,62.30
2018-03-14T19:48:35.641Z,62.50
2018-03-14T19:51:06.159Z,62.30
2018-03-14T19:53:38.080Z,63.00
2018-03-14T19:56:09.228Z,63.00
2018-03-14T20:01:44.115Z,62.80
2018-03-14T20:04:30.920Z,62.90
2018-03-14T20:07:02.596Z,63.10
2018-03-14T20:09:39.597Z,63.10
2018-03-14T20:12:13.769Z,63.10
2018-03-14T20:14:45.759Z,63.00
2018-03-14T20:17:16.926Z,63.00
2018-03-14T20:20:03.897Z,62.80
2018-03-14T20:22:35.045Z,63.30
2018-03-14T20:25:08.356Z,63.30
2018-03-14T20:27:41.051Z,63.40
2018-03-14T20:30:28.540Z,63.60
2018-03-14T20:32:59.755Z,63.30
2018-03-14T20:35:32.144Z,63.20
2018-03-14T20:38:08.099Z,63.20
2018-03-14T20:40:42.429Z,65.10
2018-03-14T20:43:13.565Z,64.30
2018-03-14T20:45:51.668Z,64.40
2018-03-14T20:48:24.172Z,64.90
2018-03-14T20:50:54.943Z,65.80
2018-03-14T20:53:30.074Z,64.60
2018-03-14T20:56:26.533Z,64.60
2018-03-14T20:59:01.396Z,64.90
2018-03-14T21:04:19.663Z,64.40
2018-03-14T21:06:50.611Z,64.00
2018-03-14T21:09:23.559Z,64.00
2018-03-14T21:11:54.071Z,63.60
2018-03-14T21:14:25.063Z,63.60
2018-03-14T21:16:57.432Z,63.30
2018-03-14T21:19:31.842Z,63.10
2018-03-14T21:22:04.333Z,63.30
2018-03-14T21:24:34.742Z,63.40
2018-03-14T21:27:08.088Z,63.10
2018-03-14T21:29:38.758Z,63.10
2018-03-14T21:32:09.354Z,62.90
2018-03-14T21:34:40.026Z,62.90
2018-03-14T21:37:11.036Z,62.90
2018-03-14T21:39:41.415Z,62.90
2018-03-14T21:42:11.778Z,62.70
2018-03-14T21:44:42.424Z,62.80
2018-03-14T21:47:12.885Z,62.70
2018-03-14T21:49:44.566Z,62.80
2018-03-14T21:52:16.222Z,62.80
2018-03-14T21:54:51.104Z,62.80
2018-03-14T21:57:23.079Z,62.70
2018-03-14T21:59:53.585Z,62.70
2018-03-14T22:02:24.408Z,62.70
2018-03-14T22:04:54.930Z,62.70
2018-03-14T22:07:25.502Z,62.60
2018-03-14T22:09:56.212Z,62.70
2018-03-14T22:12:26.545Z,62.60
2018-03-14T22:14:57.398Z,62.00
2018-03-14T22:17:27.912Z,62.60
2018-03-14T22:19:58.509Z,62.60
2018-03-14T22:22:29.369Z,62.60
2018-03-14T22:25:00.765Z,62.50
2018-03-14T22:27:31.288Z,62.50
2018-03-14T22:30:04.156Z,62.20
2018-03-14T22:32:34.783Z,62.30
2018-03-14T22:35:05.238Z,62.30
2018-03-14T22:37:36.464Z,62.30
2018-03-14T22:40:07.416Z,63.50
2018-03-14T22:42:37.936Z,62.30
2018-03-14T22:45:09.132Z,62.50
2018-03-14T22:47:40.524Z,62.40
2018-03-14T22:50:11.267Z,62.50
2018-03-14T22:52:42.550Z,62.60
2018-03-14T22:55:12.998Z,62.60
2018-03-14T22:57:44.544Z,62.50
2018-03-14T23:00:18.622Z,62.50
2018-03-14T23:02:49.923Z,62.80
2018-03-14T23:05:20.582Z,62.70
2018-03-14T23:07:51.913Z,62.60
2018-03-14T23:10:22.763Z,62.60
2018-03-14T23:12:54.058Z,62.50
2018-03-14T23:15:24.591Z,62.50
2018-03-14T23:17:55.182Z,62.60
2018-03-14T23:20:28.042Z,62.60
2018-03-14T23:22:58.438Z,62.60
2018-03-14T23:25:29.101Z,62.60
2018-03-14T23:28:00.103Z,62.60
2018-03-14T23:30:31.457Z,62.60
2018-03-14T23:33:02.065Z,63.30
2018-03-14T23:35:32.941Z,62.50
2018-03-14T23:38:03.507Z,62.50
2018-03-14T23:40:34.267Z,62.50
2018-03-14T23:43:06.012Z,62.60
2018-03-14T23:45:37.473Z,62.70
2018-03-14T23:48:08.041Z,62.70
2018-03-14T23:50:38.751Z,62.80
2018-03-14T23:53:09.331Z,62.80
2018-03-14T23:55:39.915Z,62.80
2018-03-14T23:58:10.647Z,62.80
